Terminal Aerodrome Forecast
Issued by NWS

Home | Current Version | Previous Version | Text Only | Print | Product List | Glossary On
Versions: 1 2 3 4 5 6 7 8 9 10 11 12 13 14 15 16 17 18 19 20 21 22 23 24 25 26 27 28 29 30 31 32 33 34 35 36 37 38 39 40 41 42
000
FTAK31 PANC 312348
TAFAHO
TAF
PAHO 312348Z 0100/0124 25011KT P6SM SCT030
     FM010600 VRB03KT P6SM SCT030
     FM011200 VRB03KT 3/4SM BR BKN003
     FM011800 VRB03KT 3SM BR BKN003
     FM012100 25015KT P6SM FEW060 SCT200=

USA.gov is the U.S. government's official web portal to all federal, state and local government web resources and services.